Flight Track Log - Related Links

Times and Time Zones

All times are in EDT time to prevent confusion due to time zone crossing. See the UAL235 flight status page for this flight to view local times or setup timezone preferences in your user account.

Time Position Orientation Groundspeed Altitude Reporting Facility
EDT Latitude Longitude Course Direction KTS MPH feet Rate Location/Type
Fri 11:12:36 AM 40.7167 -74.1500 North 162 186 1,300  Level New York TRACON
Fri 11:13:30 AM 40.7500 -74.1000 49° Northeast 209 241 3,300 2,550 Climbing New York TRACON
Fri 11:14:00 AM 40.9041 -74.4237 319° Northwest  Level FlightAware Approximate
Fri 11:14:36 AM 40.8000 -74.1667 315° West 254 292 6,400  Level New York TRACON
Fri 11:15:00 AM 40.9796 -74.5100 319° Northwest  Level FlightAware Approximate
Fri 11:16:00 AM 41.0523 -74.6005 316° Northwest  Level FlightAware Approximate
Fri 11:16:53 AM 40.8719 -74.3494 298° West 272 313 8,300  Level New York Center
Fri 11:17:00 AM 41.1268 -74.6833 North  Level FlightAware Approximate
Fri 11:17:52 AM 40.9200 -74.4125 315° West 261 300 10,200  Level New York Center
Fri 11:18:53 AM 40.9861 -74.4956 317° Northwest 285 328 12,000 2,311 Climbing New York Center
Fri 11:19:54 AM 41.0542 -74.5875 314° West 329 379 14,900 2,773 Climbing New York Center
Fri 11:20:52 AM 41.1161 -74.6681 316° Northwest 348 400 17,500 2,319 Climbing New York Center
Fri 11:21:53 AM 41.1708 -74.7733 305° West 348 400 19,500 2,016 Climbing New York Center
Fri 11:22:54 AM 41.2211 -74.8892 300° West 353 406 21,600 1,966 Climbing New York Center
Fri 11:23:52 AM 41.2731 -75.0111 300° West 365 420 23,400 1,729 Climbing New York Center
Fri 11:24:52 AM 41.3267 -75.1333 300° West 382 440 25,000 1,587 Climbing New York Center
Fri 11:25:53 AM 41.3806 -75.2583 300° West 387 445 26,600 1,550 Climbing New York Center
Fri 11:26:52 AM 41.4358 -75.3867 300° West 387 445 28,100 1,361 Climbing New York Center
Fri 11:27:52 AM 41.4869 -75.5175 298° West 392 451 29,300 1,450 Climbing New York Center
Fri 11:28:52 AM 41.5247 -75.6642 289° West 402 463 31,000 1,537 Climbing New York Center
Fri 11:29:53 AM 41.5669 -75.7978 293° West 402 463 32,400 1,438 Climbing New York Center
Fri 11:30:53 AM 41.6050 -75.9336 291° West 394 453 33,900 1,438 Climbing New York Center
Fri 11:31:54 AM 41.6461 -76.0842 290° West 394 453 35,300 1,059 Climbing New York Center
Fri 11:32:52 AM 41.6858 -76.2206 291° West 394 453 36,000 356 Climbing New York Center
Fri 11:33:52 AM 41.7233 -76.3569 290° West 394 453 36,000  Level New York Center
Fri 11:34:53 AM 41.7625 -76.4936 291° West 394 453 36,000  Level New York Center
Fri 11:35:54 AM 41.7942 -76.6161 289° West 394 453 36,000 38 Level New York Center
Fri 11:37:33 AM 41.8644 -76.8661 291° West 396 456 36,100  Climbing Cleveland Center
Fri 11:38:33 AM 41.9022 -77.0036 290° West 396 456 36,000 -50 Descending Cleveland Center
Fri 11:39:33 AM 41.9397 -77.1383 291° West 396 456 36,000  Level Cleveland Center
Fri 11:40:33 AM 41.9750 -77.2733 289° West 396 456 36,000  Level Cleveland Center
Fri 11:41:33 AM 42.0122 -77.4111 290° West 396 456 36,000  Level Cleveland Center
Fri 11:42:33 AM 42.0492 -77.5492 290° West 402 463 36,000  Level Cleveland Center
Fri 11:43:33 AM 42.0861 -77.6844 290° West 402 463 36,000 -50 Level Cleveland Center
Fri 11:44:33 AM 42.1186 -77.8175 288° West 396 456 35,900  Descending Cleveland Center
Fri 11:45:33 AM 42.1550 -77.9558 290° West 396 456 36,000 50 Climbing Cleveland Center
Fri 11:46:33 AM 42.1825 -78.0642 289° West 391 450 36,000  Level Cleveland Center
Fri 11:47:33 AM 42.2233 -78.2111 291° West 386 444 36,000  Level Cleveland Center
Fri 11:48:33 AM 42.2572 -78.3472 289° West 386 444 36,000  Level Cleveland Center
Fri 11:49:33 AM 42.2931 -78.4808 290° West 386 444 36,000  Level Cleveland Center
Fri 11:50:33 AM 42.3267 -78.6200 288° West 386 444 36,000  Level Cleveland Center
Fri 11:51:33 AM 42.3625 -78.7567 290° West 386 444 36,000 200 Level Cleveland Center
Fri 11:52:33 AM 42.3978 -78.8933 289° West 386 444 36,400 650 Climbing Cleveland Center
Fri 11:53:33 AM 42.4311 -79.0303 288° West 386 444 37,300 800 Climbing Cleveland Center
Fri 11:54:33 AM 42.4661 -79.1675 289° West 386 444 38,000 233 Climbing Cleveland Center
Fri 11:56:33 AM 42.5028 -79.4567 280° West 386 444 38,000  Level Cleveland Center
Fri 11:57:33 AM 42.5061 -79.5975 272° West 386 444 38,000  Level Cleveland Center
Fri 11:58:33 AM 42.5175 -79.7439 276° West 386 444 38,000  Level Cleveland Center
Fri 11:59:33 AM 42.5228 -79.8903 273° West 386 444 38,000  Level Cleveland Center
Fri 12:00:33 PM 42.5278 -80.0506 272° West 386 444 38,000  Level Cleveland Center
Fri 12:01:33 PM 42.5325 -80.1917 273° West 386 444 38,000  Level Cleveland Center
Fri 12:02:33 PM 42.5392 -80.3408 274° West 386 444 38,000  Level Cleveland Center
Fri 12:03:33 PM 42.5436 -80.4844 272° West 386 444 38,000  Level Cleveland Center
Fri 12:04:33 PM 42.5519 -80.6311 274° West 386 444 38,000  Level Cleveland Center
Fri 12:05:33 PM 42.5558 -80.7806 272° West 386 444 38,000  Level Cleveland Center
Fri 12:06:33 PM 42.5619 -80.9214 273° West 386 444 38,000  Level Cleveland Center
Fri 12:07:33 PM 42.5675 -81.0681 273° West 386 444 38,000  Level Cleveland Center
Fri 12:08:33 PM 42.5711 -81.2147 272° West 386 444 38,000  Level Cleveland Center
Fri 12:09:33 PM 42.5764 -81.3586 273° West 386 444 38,000  Level Cleveland Center
Fri 12:10:33 PM 42.5900 -81.4883 278° West 381 438 38,000  Level Cleveland Center
Fri 12:11:33 PM 42.6139 -81.6297 283° West 387 445 38,000  Level Cleveland Center
Fri 12:12:33 PM 42.6375 -81.7686 283° West 392 451 38,000  Level Cleveland Center
Fri 12:13:33 PM 42.6650 -81.9214 284° West 387 445 38,000  Level Cleveland Center
Fri 12:14:33 PM 42.6903 -82.0606 284° West 387 445 38,000  Level Cleveland Center
Fri 12:16:33 PM 42.7383 -82.3472 283° West 392 451 38,000  Level Cleveland Center
Fri 12:17:33 PM 42.7611 -82.4892 282° West 387 445 38,000  Level Cleveland Center
Fri 12:18:33 PM 42.7858 -82.6286 284° West 387 445 38,000  Level Cleveland Center
Fri 12:19:33 PM 42.8064 -82.7650 282° West 381 438 38,000  Level Cleveland Center
Fri 12:20:33 PM 42.8286 -82.8989 283° West 375 432 38,000  Level Cleveland Center
Fri 12:21:33 PM 42.8511 -83.0217 284° West 370 426 38,000  Level Cleveland Center
Fri 12:22:33 PM 42.8711 -83.1583 281° West 370 426 38,000 -200 Level Cleveland Center
Fri 12:23:33 PM 42.8931 -83.2925 283° West 370 426 37,600 -700 Descending Cleveland Center
Fri 12:24:33 PM 42.9150 -83.4267 283° West 370 426 36,600 -1,000 Descending Cleveland Center
Fri 12:25:33 PM 42.9364 -83.5639 282° West 375 432 35,600 -1,000 Descending Cleveland Center
Fri 12:26:33 PM 42.9558 -83.6981 281° West 375 432 34,600 -950 Descending Cleveland Center
Fri 12:27:33 PM 42.9583 -83.8317 272° West 369 425 33,700 -974 Descending Cleveland Center
Fri 12:29:07 PM 42.9358 -84.0575 262° West 364 419 32,100 -654 Descending Chicago Center
Fri 12:30:09 PM 42.9233 -84.1964 263° West 370 426 32,000 -48 Descending Chicago Center
Fri 12:31:11 PM 42.9086 -84.3344 262° West 368 423 32,000  Level Chicago Center
Fri 12:32:13 PM 42.8944 -84.4728 262° West 369 425 32,000  Level Chicago Center
Fri 12:33:15 PM 42.8811 -84.6097 262° West 366 421 32,000  Level Chicago Center
Fri 12:34:17 PM 42.8669 -84.7472 262° West 368 423 32,000  Level Chicago Center
Fri 12:35:19 PM 42.8500 -84.9108 262° West 365 420 32,000  Level Chicago Center
Fri 12:36:22 PM 42.8353 -85.0481 262° West 366 421 32,000  Level Chicago Center
Fri 12:37:24 PM 42.8217 -85.1822 262° West 361 415 32,000 -145 Level Chicago Center
Fri 12:38:26 PM 42.8061 -85.3156 261° West 359 413 31,700 -1,161 Descending Chicago Center
Fri 12:39:28 PM 42.7933 -85.4317 262° West 321 369 29,600 -1,839 Descending Chicago Center
Fri 12:40:30 PM 42.7781 -85.5483 260° West 313 360 27,900 -2,468 Descending Chicago Center
Fri 12:41:32 PM 42.7558 -85.6694 256° West 321 369 24,500 -2,468 Descending Chicago Center
Fri 12:42:34 PM 42.7275 -85.8247 256° West 346 398 22,800 -1,645 Descending Chicago Center
Fri 12:43:36 PM 42.7042 -85.9514 256° West 345 397 21,100 -871 Descending Chicago Center
Fri 12:44:38 PM 42.6814 -86.0806 257° West 348 400 21,000 -194 Descending Chicago Center
Fri 12:45:40 PM 42.6578 -86.2083 256° West 348 400 20,700 -871 Descending Chicago Center
Fri 12:46:42 PM 42.6336 -86.3328 255° West 342 394 19,200 -1,452 Descending Chicago Center
Fri 12:47:44 PM 42.6103 -86.4564 256° West 340 391 17,700 -1,355 Descending Chicago Center
Fri 12:48:46 PM 42.5861 -86.5831 256° West 345 397 16,400 -1,597 Descending Chicago Center
Fri 12:49:48 PM 42.5594 -86.7342 257° West 343 395 14,400 -1,694 Descending Chicago Center
Fri 12:50:50 PM 42.5253 -86.8544 249° West 342 394 12,900 -1,452 Descending Chicago Center
Fri 12:51:52 PM 42.4947 -86.9706 250° West 332 382 11,400 -1,355 Descending Chicago Center
Fri 12:52:54 PM 42.4628 -87.0825 249° West 321 369 10,100 -732 Descending Chicago Center
Fri 12:53:55 PM 42.4350 -87.1847 250° West 296 341 9,900 -488 Descending Chicago Center
Fri 12:54:57 PM 42.4086 -87.2747 248° West 259 298 9,100 -1,065 Descending Chicago Center
Fri 12:55:59 PM 42.3667 -87.3739 240° Southwest 254 292 7,700 -1,016 Descending Chicago Center
Fri 12:57:01 PM 42.3308 -87.4583 240° Southwest 254 292 7,000 -290 Descending Chicago Center
Fri 12:58:03 PM 42.2956 -87.5442 241° Southwest 253 291 7,100 48 Climbing Chicago Center
Fri 12:59:05 PM 42.2514 -87.6156 230° Southwest 255 293 7,100 -387 Level Chicago Center
Fri 01:00:07 PM 42.1972 -87.6758 220° Southwest 254 292 6,300 -1,065 Descending Chicago Center
Fri 01:01:09 PM 42.1481 -87.7303 219° Southwest 234 269 4,900 -1,302 Descending Chicago Center
Fri 01:01:53 PM 42.1167 -87.7667 221° Southwest 187 215 4,000 -1,227 Descending Chicago TRACON

Login

Don't have an account? Register now (free) for customized features, flight alerts, and more!